SAS1706 EFHK-ENGM
Flight info
| Callsign | SAS1706 |
|---|---|
| Flight time | N/A |
| Altitude | 37000 |
| Route | ADIVO Y365 POGOK DCT POKAS DCT EBURI N623 ESEBA |
| Aircraft | A320/M-SDE3FGHIRWY/LB1 |
Departure
| Time | 2026-04-22 18:46 |
|---|---|
| Airport | Helsinki Vantaa Airport (EFHK) |
Arrival
| Time | N/A |
|---|---|
| Airport | Oslo-Gardermoen International Airport (ENGM) |
| Time | Latitude | Longitude | Altitude | Speed | Heading |
|---|---|---|---|---|---|
| 2026-04-22 18:09 | 60.31840 | 24.96466 | 162 ft | 0 kts | 136° |
| 2026-04-22 18:31 | 60.31850 | 24.96447 | 161 ft | 4 kts | 143° |
| 2026-04-22 18:31 | 60.31865 | 24.96428 | 161 ft | 4 kts | 159° |
| 2026-04-22 18:31 | 60.31898 | 24.96422 | 161 ft | 4 kts | 206° |
| 2026-04-22 18:32 | 60.31912 | 24.96440 | 161 ft | 2 kts | 227° |
| 2026-04-22 18:32 | 60.31913 | 24.96444 | 161 ft | 0 kts | 228° |
| 2026-04-22 18:37 | 60.31911 | 24.96439 | 161 ft | 1 kts | 228° |
| 2026-04-22 18:37 | 60.31899 | 24.96413 | 161 ft | 4 kts | 228° |
| 2026-04-22 18:37 | 60.31877 | 24.96362 | 161 ft | 5 kts | 228° |
| 2026-04-22 18:37 | 60.31859 | 24.96310 | 161 ft | 5 kts | 244° |
| 2026-04-22 18:38 | 60.31853 | 24.96228 | 161 ft | 6 kts | 272° |
| 2026-04-22 18:38 | 60.31869 | 24.96142 | 161 ft | 7 kts | 304° |
| 2026-04-22 18:38 | 60.31895 | 24.96088 | 161 ft | 5 kts | 317° |
| 2026-04-22 18:39 | 60.31910 | 24.95919 | 161 ft | 9 kts | 233° |
| 2026-04-22 18:39 | 60.31866 | 24.95824 | 161 ft | 9 kts | 227° |
| 2026-04-22 18:39 | 60.31820 | 24.95722 | 161 ft | 8 kts | 227° |
| 2026-04-22 18:39 | 60.31778 | 24.95628 | 161 ft | 10 kts | 227° |
| 2026-04-22 18:40 | 60.31723 | 24.95509 | 161 ft | 13 kts | 227° |
| 2026-04-22 18:40 | 60.31657 | 24.95364 | 161 ft | 15 kts | 228° |
| 2026-04-22 18:40 | 60.31579 | 24.95190 | 161 ft | 18 kts | 228° |
| 2026-04-22 18:40 | 60.31482 | 24.94975 | 161 ft | 24 kts | 227° |
| 2026-04-22 18:41 | 60.31359 | 24.94706 | 161 ft | 28 kts | 227° |
| 2026-04-22 18:41 | 60.31228 | 24.94421 | 161 ft | 29 kts | 227° |
| 2026-04-22 18:41 | 60.31095 | 24.94118 | 161 ft | 26 kts | 227° |
| 2026-04-22 18:41 | 60.31037 | 24.93891 | 161 ft | 15 kts | 279° |
| 2026-04-22 18:42 | 60.31048 | 24.93826 | 161 ft | 0 kts | 307° |
| 2026-04-22 18:43 | 60.31052 | 24.93815 | 161 ft | 3 kts | 307° |
| 2026-04-22 18:44 | 60.31079 | 24.93761 | 161 ft | 7 kts | 320° |
| 2026-04-22 18:44 | 60.31124 | 24.93689 | 160 ft | 6 kts | 321° |
| 2026-04-22 18:44 | 60.31160 | 24.93703 | 161 ft | 6 kts | 38° |
| 2026-04-22 18:44 | 60.31176 | 24.93738 | 161 ft | 1 kts | 48° |
| 2026-04-22 18:45 | 60.31184 | 24.93756 | 162 ft | 13 kts | 47° |
| 2026-04-22 18:45 | 60.31414 | 24.94265 | 163 ft | 82 kts | 47° |
| 2026-04-22 18:46 | 60.31931 | 24.95403 | 162 ft | 135 kts | 48° |
| 2026-04-22 18:46 | 60.32662 | 24.97003 | 182 ft | 173 kts | 46° |
| 2026-04-22 18:46 | 60.33460 | 24.98766 | 800 ft | 163 kts | 39° |
| 2026-04-22 18:46 | 60.34201 | 25.00422 | 1492 ft | 156 kts | 39° |
| 2026-04-22 18:47 | 60.34952 | 25.02116 | 1951 ft | 168 kts | 38° |
| 2026-04-22 18:47 | 60.35750 | 25.03909 | 2446 ft | 175 kts | 38° |
| 2026-04-22 18:47 | 60.36584 | 25.05779 | 2915 ft | 185 kts | 38° |
| 2026-04-22 18:47 | 60.37500 | 25.07721 | 3259 ft | 203 kts | 37° |
| 2026-04-22 18:48 | 60.38549 | 25.09914 | 3570 ft | 229 kts | 39° |
| 2026-04-22 18:48 | 60.39780 | 25.12014 | 4272 ft | 231 kts | 22° |
| 2026-04-22 18:48 | 60.41299 | 25.12843 | 5177 ft | 227 kts | 0° |
| 2026-04-22 18:48 | 60.42883 | 25.12821 | 6120 ft | 228 kts | 359° |
| 2026-04-22 18:49 | 60.44475 | 25.12863 | 6958 ft | 230 kts | 0° |
| 2026-04-22 18:49 | 60.46079 | 25.12939 | 7868 ft | 231 kts | 360° |
| 2026-04-22 18:49 | 60.47680 | 25.12995 | 8793 ft | 230 kts | 356° |
| 2026-04-22 18:49 | 60.49205 | 25.12079 | 9657 ft | 234 kts | 331° |
| 2026-04-22 18:50 | 60.50315 | 25.09638 | 10377 ft | 251 kts | 305° |
| 2026-04-22 18:50 | 60.50721 | 25.05991 | 10881 ft | 284 kts | 285° |
| 2026-04-22 18:50 | 60.50813 | 25.01804 | 11060 ft | 310 kts | 282° |
| 2026-04-22 18:50 | 60.50825 | 24.97333 | 11540 ft | 322 kts | 281° |
| 2026-04-22 18:51 | 60.50801 | 24.92750 | 12167 ft | 327 kts | 280° |
| 2026-04-22 18:51 | 60.50630 | 24.88080 | 12821 ft | 343 kts | 270° |
| 2026-04-22 18:51 | 60.49898 | 24.83326 | 13421 ft | 363 kts | 256° |
| 2026-04-22 18:51 | 60.48795 | 24.78648 | 13995 ft | 370 kts | 255° |
| 2026-04-22 18:52 | 60.47685 | 24.73916 | 14570 ft | 373 kts | 256° |
| 2026-04-22 18:52 | 60.46577 | 24.69149 | 15112 ft | 377 kts | 256° |
| 2026-04-22 18:52 | 60.45470 | 24.64384 | 15683 ft | 380 kts | 256° |
| 2026-04-22 18:52 | 60.44339 | 24.59518 | 16251 ft | 383 kts | 257° |
| 2026-04-22 18:53 | 60.43192 | 24.54615 | 16840 ft | 387 kts | 257° |
| 2026-04-22 18:53 | 60.42036 | 24.49687 | 17400 ft | 390 kts | 257° |
| 2026-04-22 18:53 | 60.40863 | 24.44703 | 17986 ft | 393 kts | 257° |
| 2026-04-22 18:53 | 60.39679 | 24.39684 | 18517 ft | 397 kts | 257° |
| 2026-04-22 18:54 | 60.38484 | 24.34636 | 19089 ft | 399 kts | 257° |
| 2026-04-22 18:54 | 60.37296 | 24.29628 | 19623 ft | 402 kts | 257° |
| 2026-04-22 18:54 | 60.36083 | 24.24521 | 20167 ft | 405 kts | 257° |
| 2026-04-22 18:54 | 60.34859 | 24.19387 | 20638 ft | 407 kts | 256° |
| 2026-04-22 18:55 | 60.33624 | 24.14219 | 21178 ft | 410 kts | 255° |
| 2026-04-22 18:55 | 60.32379 | 24.09040 | 21653 ft | 412 kts | 255° |
| 2026-04-22 18:55 | 60.31119 | 24.03801 | 22136 ft | 416 kts | 255° |
| 2026-04-22 18:55 | 60.29936 | 23.98490 | 22645 ft | 411 kts | 261° |
| 2026-04-22 18:56 | 60.29192 | 23.93017 | 23146 ft | 403 kts | 269° |
| 2026-04-22 18:56 | 60.28608 | 23.87474 | 23607 ft | 405 kts | 269° |
| 2026-04-22 18:56 | 60.28015 | 23.81913 | 24008 ft | 408 kts | 269° |
| 2026-04-22 18:56 | 60.27414 | 23.76375 | 24395 ft | 411 kts | 269° |
| 2026-04-22 18:57 | 60.26795 | 23.70727 | 24784 ft | 414 kts | 269° |
| 2026-04-22 18:57 | 60.26170 | 23.65042 | 25169 ft | 417 kts | 269° |
| 2026-04-22 18:57 | 60.25541 | 23.59335 | 25544 ft | 420 kts | 269° |
| 2026-04-22 18:57 | 60.24902 | 23.53579 | 25918 ft | 422 kts | 269° |
| 2026-04-22 18:58 | 60.24258 | 23.47788 | 26279 ft | 425 kts | 269° |
| 2026-04-22 18:58 | 60.23610 | 23.41963 | 26641 ft | 428 kts | 269° |
| 2026-04-22 18:58 | 60.22957 | 23.36104 | 26988 ft | 430 kts | 269° |
| 2026-04-22 18:58 | 60.22297 | 23.30227 | 27304 ft | 433 kts | 268° |
| 2026-04-22 18:59 | 60.21636 | 23.24384 | 27618 ft | 436 kts | 268° |
| 2026-04-22 18:59 | 60.20956 | 23.18417 | 27956 ft | 439 kts | 268° |
| 2026-04-22 18:59 | 60.20270 | 23.12410 | 28293 ft | 442 kts | 268° |
| 2026-04-22 18:59 | 60.19579 | 23.06374 | 28579 ft | 444 kts | 268° |
| 2026-04-22 19:00 | 60.19117 | 23.02374 | 28789 ft | 446 kts | 268° |
| 2026-04-22 19:00 | 60.18171 | 22.94214 | 29245 ft | 450 kts | 268° |
| 2026-04-22 19:00 | 60.17460 | 22.88083 | 29571 ft | 452 kts | 268° |
| 2026-04-22 19:00 | 60.16750 | 22.81993 | 29892 ft | 455 kts | 268° |
| 2026-04-22 19:01 | 60.16019 | 22.75792 | 30204 ft | 457 kts | 268° |
| 2026-04-22 19:01 | 60.15283 | 22.69611 | 30624 ft | 456 kts | 268° |
| 2026-04-22 19:01 | 60.14545 | 22.63429 | 31027 ft | 455 kts | 268° |
| 2026-04-22 19:01 | 60.13811 | 22.57260 | 31425 ft | 454 kts | 268° |
| 2026-04-22 19:02 | 60.13080 | 22.51104 | 31763 ft | 453 kts | 268° |
| 2026-04-22 19:02 | 60.12348 | 22.44956 | 32157 ft | 453 kts | 268° |
| 2026-04-22 19:02 | 60.11615 | 22.38831 | 32539 ft | 452 kts | 268° |
| 2026-04-22 19:02 | 60.10889 | 22.32781 | 32939 ft | 452 kts | 268° |
| 2026-04-22 19:03 | 60.10149 | 22.26660 | 33350 ft | 451 kts | 267° |
| 2026-04-22 19:03 | 60.09407 | 22.20549 | 33747 ft | 451 kts | 267° |
| 2026-04-22 19:03 | 60.08661 | 22.14461 | 34095 ft | 450 kts | 267° |
| 2026-04-22 19:03 | 60.07908 | 22.08372 | 34416 ft | 450 kts | 267° |
| 2026-04-22 19:04 | 60.07152 | 22.02299 | 34712 ft | 449 kts | 266° |
| 2026-04-22 19:04 | 60.06395 | 21.96237 | 34880 ft | 448 kts | 266° |
| 2026-04-22 19:04 | 60.04883 | 21.84165 | 34916 ft | 447 kts | 266° |
| 2026-04-22 19:05 | 60.03381 | 21.72202 | 34919 ft | 447 kts | 266° |
| 2026-04-22 19:05 | 60.01855 | 21.60144 | 34933 ft | 447 kts | 265° |
| 2026-04-22 19:06 | 60.00312 | 21.48083 | 34936 ft | 448 kts | 265° |
| 2026-04-22 19:07 | 59.99133 | 21.30159 | 34946 ft | 428 kts | 280° |
| 2026-04-22 19:07 | 59.99161 | 21.18277 | 34945 ft | 428 kts | 280° |
| 2026-04-22 19:08 | 59.99169 | 21.06371 | 34956 ft | 428 kts | 280° |
| 2026-04-22 19:08 | 59.99167 | 20.94475 | 34909 ft | 429 kts | 279° |
| 2026-04-22 19:09 | 59.99157 | 20.82524 | 34964 ft | 431 kts | 279° |
| 2026-04-22 19:09 | 59.99132 | 20.70632 | 34965 ft | 432 kts | 279° |
| 2026-04-22 19:10 | 59.99092 | 20.58595 | 34959 ft | 433 kts | 279° |
| 2026-04-22 19:10 | 59.99042 | 20.46561 | 34976 ft | 434 kts | 279° |
| 2026-04-22 19:11 | 59.98982 | 20.34585 | 34977 ft | 434 kts | 279° |
| 2026-04-22 19:11 | 59.98920 | 20.22546 | 34939 ft | 434 kts | 278° |
| 2026-04-22 19:12 | 59.98841 | 20.10449 | 34979 ft | 436 kts | 278° |
| 2026-04-22 19:12 | 59.98749 | 19.98315 | 34977 ft | 437 kts | 278° |
| 2026-04-22 19:13 | 59.98644 | 19.86187 | 34978 ft | 437 kts | 278° |
| 2026-04-22 19:13 | 59.98533 | 19.74145 | 34978 ft | 437 kts | 278° |
| 2026-04-22 19:14 | 59.98415 | 19.62007 | 35002 ft | 437 kts | 278° |
| 2026-04-22 19:14 | 59.98281 | 19.49879 | 35002 ft | 437 kts | 278° |
| 2026-04-22 19:15 | 59.98156 | 19.39781 | 35007 ft | 438 kts | 277° |
| 2026-04-22 19:15 | 59.97897 | 19.25652 | 35010 ft | 439 kts | 277° |
| 2026-04-22 19:16 | 59.97611 | 19.13466 | 35010 ft | 439 kts | 276° |
| 2026-04-22 19:16 | 59.97321 | 19.01295 | 35019 ft | 439 kts | 276° |
| 2026-04-22 19:17 | 59.97033 | 18.89114 | 35033 ft | 440 kts | 276° |
| 2026-04-22 19:17 | 59.96740 | 18.76990 | 35024 ft | 441 kts | 275° |
| 2026-04-22 19:18 | 59.96433 | 18.64771 | 35040 ft | 441 kts | 275° |
| 2026-04-22 19:18 | 59.96103 | 18.52530 | 35037 ft | 442 kts | 275° |
| 2026-04-22 19:19 | 59.95763 | 18.40298 | 35031 ft | 442 kts | 275° |
| 2026-04-22 19:19 | 59.95421 | 18.28152 | 35037 ft | 442 kts | 275° |
| 2026-04-22 19:20 | 59.95067 | 18.15918 | 35045 ft | 442 kts | 275° |
| 2026-04-22 19:20 | 59.94700 | 18.03664 | 35050 ft | 443 kts | 274° |
| 2026-04-22 19:21 | 59.94322 | 17.91425 | 35053 ft | 443 kts | 274° |
| 2026-04-22 19:21 | 59.93932 | 17.79243 | 35030 ft | 443 kts | 274° |
| 2026-04-22 19:22 | 59.93527 | 17.66984 | 35029 ft | 443 kts | 274° |
| 2026-04-22 19:22 | 59.93115 | 17.54712 | 35032 ft | 443 kts | 274° |
| 2026-04-22 19:23 | 59.92694 | 17.42526 | 35029 ft | 444 kts | 274° |
| 2026-04-22 19:23 | 59.92254 | 17.30241 | 35040 ft | 446 kts | 273° |
| 2026-04-22 19:24 | 59.91799 | 17.17919 | 35043 ft | 446 kts | 273° |
| 2026-04-22 19:24 | 59.91334 | 17.05554 | 35066 ft | 448 kts | 272° |
| 2026-04-22 19:25 | 59.90862 | 16.93185 | 35079 ft | 448 kts | 272° |
| 2026-04-22 19:25 | 59.90377 | 16.80888 | 35090 ft | 448 kts | 272° |
| 2026-04-22 19:26 | 59.89871 | 16.68516 | 35051 ft | 448 kts | 271° |
| 2026-04-22 19:26 | 59.89351 | 16.56127 | 35111 ft | 449 kts | 271° |
| 2026-04-22 19:27 | 59.88827 | 16.43750 | 35101 ft | 449 kts | 271° |
| 2026-04-22 19:27 | 59.88297 | 16.31379 | 35099 ft | 449 kts | 271° |
| 2026-04-22 19:28 | 59.87754 | 16.19073 | 35105 ft | 449 kts | 271° |
| 2026-04-22 19:28 | 59.87196 | 16.06700 | 35110 ft | 449 kts | 271° |
| 2026-04-22 19:29 | 59.86624 | 15.94317 | 35122 ft | 449 kts | 270° |
| 2026-04-22 19:29 | 59.86037 | 15.81941 | 35120 ft | 450 kts | 270° |
| 2026-04-22 19:30 | 59.85538 | 15.71640 | 35134 ft | 450 kts | 270° |
| 2026-04-22 19:30 | 59.84829 | 15.57248 | 35136 ft | 450 kts | 270° |
| 2026-04-22 19:31 | 59.84212 | 15.44851 | 35147 ft | 450 kts | 270° |
| 2026-04-22 19:31 | 59.83584 | 15.32429 | 35158 ft | 452 kts | 270° |
| 2026-04-22 19:32 | 59.82932 | 15.19980 | 35153 ft | 454 kts | 269° |
| 2026-04-22 19:32 | 59.82278 | 15.07572 | 35169 ft | 454 kts | 269° |
| 2026-04-22 19:33 | 59.81605 | 14.95084 | 35168 ft | 454 kts | 269° |
| 2026-04-22 19:33 | 59.80920 | 14.82613 | 35176 ft | 454 kts | 269° |
| 2026-04-22 19:33 | 59.80571 | 14.76374 | 34979 ft | 454 kts | 269° |
| 2026-04-22 19:34 | 59.80245 | 14.70169 | 34143 ft | 459 kts | 272° |
| 2026-04-22 19:34 | 59.80317 | 14.63913 | 33515 ft | 449 kts | 282° |
| 2026-04-22 19:34 | 59.80850 | 14.57884 | 33049 ft | 439 kts | 287° |
| 2026-04-22 19:34 | 59.81452 | 14.51961 | 32602 ft | 435 kts | 287° |
| 2026-04-22 19:35 | 59.82040 | 14.46087 | 32134 ft | 431 kts | 287° |
| 2026-04-22 19:35 | 59.82620 | 14.40282 | 31676 ft | 427 kts | 287° |
| 2026-04-22 19:35 | 59.83197 | 14.34508 | 31225 ft | 424 kts | 287° |
| 2026-04-22 19:35 | 59.83769 | 14.28791 | 30790 ft | 420 kts | 287° |
| 2026-04-22 19:36 | 59.84332 | 14.23181 | 30362 ft | 417 kts | 287° |
| 2026-04-22 19:36 | 59.84898 | 14.17540 | 29891 ft | 414 kts | 287° |
| 2026-04-22 19:36 | 59.85459 | 14.11956 | 29466 ft | 409 kts | 287° |
| 2026-04-22 19:36 | 59.86007 | 14.06444 | 29082 ft | 405 kts | 287° |
| 2026-04-22 19:37 | 59.86547 | 14.00969 | 28678 ft | 401 kts | 287° |
| 2026-04-22 19:37 | 59.87077 | 13.95536 | 28257 ft | 398 kts | 287° |
| 2026-04-22 19:37 | 59.87597 | 13.90141 | 27887 ft | 395 kts | 287° |
| 2026-04-22 19:37 | 59.88109 | 13.84790 | 27503 ft | 393 kts | 286° |
| 2026-04-22 19:38 | 59.88616 | 13.79457 | 27198 ft | 389 kts | 286° |
| 2026-04-22 19:38 | 59.89120 | 13.74185 | 26801 ft | 388 kts | 286° |
| 2026-04-22 19:38 | 59.89615 | 13.69012 | 26557 ft | 381 kts | 286° |
| 2026-04-22 19:38 | 59.90114 | 13.63801 | 26024 ft | 384 kts | 286° |
| 2026-04-22 19:39 | 59.90606 | 13.58640 | 25849 ft | 376 kts | 286° |
| 2026-04-22 19:39 | 59.91086 | 13.53548 | 25556 ft | 371 kts | 286° |
| 2026-04-22 19:39 | 59.91557 | 13.48532 | 24965 ft | 366 kts | 286° |
| 2026-04-22 19:39 | 59.92020 | 13.43570 | 24365 ft | 362 kts | 286° |
| 2026-04-22 19:40 | 59.92480 | 13.38621 | 23942 ft | 364 kts | 286° |
| 2026-04-22 19:40 | 59.92937 | 13.33677 | 23477 ft | 363 kts | 286° |
| 2026-04-22 19:40 | 59.93388 | 13.28744 | 23028 ft | 360 kts | 285° |
| 2026-04-22 19:40 | 59.93836 | 13.23856 | 22632 ft | 357 kts | 285° |
| 2026-04-22 19:41 | 59.94275 | 13.19071 | 22222 ft | 354 kts | 285° |
| 2026-04-22 19:41 | 59.94715 | 13.14251 | 21810 ft | 352 kts | 285° |
| 2026-04-22 19:41 | 59.95147 | 13.09476 | 21397 ft | 349 kts | 285° |
| 2026-04-22 19:41 | 59.95575 | 13.04713 | 20986 ft | 348 kts | 285° |
| 2026-04-22 19:42 | 59.95999 | 12.99974 | 20575 ft | 346 kts | 285° |
| 2026-04-22 19:42 | 59.96421 | 12.95257 | 20165 ft | 344 kts | 285° |
| 2026-04-22 19:42 | 59.96839 | 12.90575 | 19771 ft | 342 kts | 285° |
| 2026-04-22 19:42 | 59.97249 | 12.85945 | 19446 ft | 338 kts | 285° |
| 2026-04-22 19:43 | 59.98047 | 12.76840 | 18841 ft | 329 kts | 285° |
| 2026-04-22 19:43 | 59.98438 | 12.72354 | 18510 ft | 326 kts | 285° |
| 2026-04-22 19:43 | 59.98823 | 12.67915 | 18123 ft | 324 kts | 285° |
| 2026-04-22 19:44 | 59.99205 | 12.63495 | 17728 ft | 322 kts | 285° |
| 2026-04-22 19:44 | 59.99583 | 12.59104 | 17343 ft | 319 kts | 285° |
| 2026-04-22 19:44 | 59.99956 | 12.54748 | 16964 ft | 317 kts | 284° |
| 2026-04-22 19:44 | 60.00324 | 12.50410 | 16586 ft | 314 kts | 284° |
| 2026-04-22 19:45 | 60.00685 | 12.46137 | 15966 ft | 311 kts | 284° |
| 2026-04-22 19:45 | 60.01022 | 12.41880 | 15506 ft | 311 kts | 279° |
| 2026-04-22 19:45 | 60.00993 | 12.37598 | 15125 ft | 316 kts | 266° |
| 2026-04-22 19:45 | 60.00512 | 12.33301 | 14762 ft | 317 kts | 262° |
| 2026-04-22 19:46 | 60.00194 | 12.28987 | 14519 ft | 313 kts | 268° |
| 2026-04-22 19:46 | 59.99929 | 12.24673 | 14288 ft | 312 kts | 268° |
| 2026-04-22 19:46 | 59.99638 | 12.20384 | 14042 ft | 312 kts | 262° |
| 2026-04-22 19:46 | 59.99045 | 12.16298 | 13790 ft | 304 kts | 256° |
| 2026-04-22 19:47 | 59.98370 | 12.12327 | 13521 ft | 299 kts | 256° |
| 2026-04-22 19:47 | 59.97692 | 12.08430 | 13268 ft | 295 kts | 256° |
| 2026-04-22 19:47 | 59.97019 | 12.04597 | 13009 ft | 291 kts | 256° |
| 2026-04-22 19:47 | 59.96347 | 12.00814 | 12743 ft | 285 kts | 256° |
| 2026-04-22 19:48 | 59.95690 | 11.97173 | 12463 ft | 273 kts | 256° |
| 2026-04-22 19:48 | 59.95043 | 11.93645 | 12217 ft | 271 kts | 256° |
| 2026-04-22 19:48 | 59.94407 | 11.90186 | 11969 ft | 268 kts | 256° |
| 2026-04-22 19:48 | 59.93764 | 11.86716 | 11721 ft | 265 kts | 256° |
| 2026-04-22 19:49 | 59.93124 | 11.83306 | 11804 ft | 262 kts | 255° |
| 2026-04-22 19:49 | 59.92406 | 11.79927 | 12032 ft | 271 kts | 242° |
| 2026-04-22 19:49 | 59.91068 | 11.77171 | 12187 ft | 284 kts | 220° |
| 2026-04-22 19:49 | 59.89419 | 11.74985 | 12094 ft | 284 kts | 216° |
| 2026-04-22 19:50 | 59.87745 | 11.72912 | 11805 ft | 283 kts | 216° |
| 2026-04-22 19:50 | 59.86094 | 11.70808 | 11516 ft | 279 kts | 224° |
| 2026-04-22 19:50 | 59.84865 | 11.68029 | 11246 ft | 266 kts | 247° |
| 2026-04-22 19:50 | 59.84249 | 11.64619 | 10712 ft | 263 kts | 270° |
| 2026-04-22 19:51 | 59.84346 | 11.61147 | 10386 ft | 243 kts | 290° |
| 2026-04-22 19:51 | 59.84826 | 11.57987 | 9954 ft | 239 kts | 286° |
| 2026-04-22 19:51 | 59.84703 | 11.54646 | 9344 ft | 253 kts | 254° |
| 2026-04-22 19:51 | 59.83969 | 11.51495 | 9044 ft | 246 kts | 257° |
| 2026-04-22 19:52 | 59.83943 | 11.48341 | 8612 ft | 220 kts | 306° |
| 2026-04-22 19:52 | 59.84754 | 11.46023 | 8535 ft | 195 kts | 303° |
| 2026-04-22 19:52 | 59.85312 | 11.43555 | 9027 ft | 196 kts | 301° |
| 2026-04-22 19:52 | 59.85902 | 11.41059 | 9598 ft | 204 kts | 300° |
| 2026-04-22 19:53 | 59.86522 | 11.38406 | 9416 ft | 219 kts | 300° |
| 2026-04-22 19:53 | 59.87162 | 11.35613 | 8880 ft | 228 kts | 299° |
| 2026-04-22 19:53 | 59.87814 | 11.32721 | 8523 ft | 229 kts | 300° |
| 2026-04-22 19:53 | 59.88468 | 11.29793 | 8070 ft | 235 kts | 300° |
| 2026-04-22 19:54 | 59.89145 | 11.26762 | 7534 ft | 243 kts | 300° |
| 2026-04-22 19:54 | 59.89837 | 11.23654 | 7084 ft | 250 kts | 299° |
| 2026-04-22 19:54 | 59.90552 | 11.20447 | 6586 ft | 257 kts | 299° |
| 2026-04-22 19:54 | 59.91290 | 11.17141 | 6111 ft | 262 kts | 299° |
| 2026-04-22 19:55 | 59.92015 | 11.13874 | 5983 ft | 253 kts | 298° |
| 2026-04-22 19:55 | 59.92838 | 11.10950 | 6006 ft | 232 kts | 313° |
| 2026-04-22 19:55 | 59.93919 | 11.08682 | 5877 ft | 221 kts | 319° |
| 2026-04-22 19:55 | 59.94984 | 11.06552 | 5747 ft | 213 kts | 319° |
| 2026-04-22 19:56 | 59.95994 | 11.04526 | 5640 ft | 203 kts | 319° |
| 2026-04-22 19:56 | 59.96952 | 11.02590 | 5518 ft | 190 kts | 319° |
| 2026-04-22 19:56 | 59.97926 | 11.00975 | 5390 ft | 175 kts | 335° |
| 2026-04-22 19:56 | 59.99074 | 11.00376 | 5062 ft | 174 kts | 359° |
| 2026-04-22 19:57 | 60.00269 | 11.00836 | 4603 ft | 176 kts | 13° |
| 2026-04-22 19:57 | 60.01437 | 11.01512 | 4107 ft | 174 kts | 13° |
| 2026-04-22 19:57 | 60.02599 | 11.02180 | 3627 ft | 173 kts | 14° |
| 2026-04-22 19:57 | 60.03732 | 11.02829 | 3482 ft | 170 kts | 14° |
| 2026-04-22 19:58 | 60.04850 | 11.03468 | 3308 ft | 169 kts | 14° |
| 2026-04-22 19:58 | 60.05972 | 11.04111 | 3091 ft | 167 kts | 14° |
| 2026-04-22 19:58 | 60.07090 | 11.04751 | 2872 ft | 166 kts | 14° |
| 2026-04-22 19:58 | 60.08199 | 11.05387 | 2641 ft | 165 kts | 14° |
| 2026-04-22 19:59 | 60.09263 | 11.05998 | 2425 ft | 153 kts | 14° |